Rugeley, United Kingdom
Current Conditions -  °F | °C
As of 4:50 AM on Thursday 23 Oct 2014 (Local Time) from EGBB Reporting Station
Broken Clouds Broken Clouds  
Wind Chill: 11°   Ceiling: 3200
Heat Index: 11°   Visibility: 6mi
Dew Point:   Wind: 6mph
Humidity: 82%   Direction: 180°S
Pressure: 30.06"   Gusts: NA
Location:  52.76°N, 1.93°W
Report Text: EGBB 230350Z 18005KT 150V220 9999 BKN032 11/08 Q1018
Loading
Personal Weather Stations






























Interactive Weather Map
Tropical Storm Tracking
New forecast layout! Learn more

10-Day Weather Forecast

Advertisements
Track Severe Weather on mobile